Ile Surprise, New Caledonia
Current Conditions -  °F | °C
As of 6:00 PM on Friday 19 Dec 2014 (Local Time) from NWWW Reporting Station
Broken Clouds Broken Clouds  
Wind Chill: 82°   Ceiling: 6200
Heat Index: 88°   Visibility: 6mi
Dew Point: 73°   Wind: 3mph
Humidity: 74%   Direction: NA
Pressure: 29.8"   Gusts: NA
Location:  18.48°S, 163.08°E
Report Text: NWWW 190700Z AUTO VRB03KT 9999 FEW034/// BKN062/// ///TCU28/23 Q1009
Loading
Personal Weather Stations






























Interactive Weather Map New forecast layout! Learn more

10-Day Weather Forecast

Advertisements
Track Severe Weather on mobile